Weather at Catalina Airport

Public forecast

Using degrees Fahrenheit for public forecast. Weather courtesy of forecast.io.

Current aviation weather report (METAR) for Catalina Airport

Retrieved 2020/10/31 02:51 UTC (44 minutes ago):

KAVX 310251Z AUTO 32005KT 10SM CLR 22/M04 A3001 RMK AO2 SLP137 T02221039 53009

Closest aviation forecast (TAF) to Catalina Airport

Closest forecast is Long Beach Airport (Daugherty Field), 28.1 nm (52.0 km) NNE. Retrieved 2020-10-31 00:42 UTC (3 hours ago):

TAF KLGB 302340Z 3100/3124 29008KT P6SM SKC FM310400 VRB03KT 5SM BR SKC FM310900 VRB03KT 1SM BR OVC003 TEMPO 3111/3115 1/4SM FG VV001 FM311600 VRB05KT 3SM HZ SCT004 FM311800 18006KT P6SM SKC